sensor_id;sensor_type;location;lat;lon;timestamp;P1;durP1;ratioP1;P2;durP2;ratioP2
71183;SDS011;58887;51.980;4.464;2023-11-21T00:00:12;7.72;;;7.72;;
71183;SDS011;58887;51.980;4.464;2023-11-21T00:02:38;7.63;;;7.60;;
71183;SDS011;58887;51.980;4.464;2023-11-21T00:05:06;7.16;;;7.15;;
71183;SDS011;58887;51.980;4.464;2023-11-21T00:07:36;7.12;;;7.11;;
71183;SDS011;58887;51.980;4.464;2023-11-21T00:10:03;7.80;;;7.77;;
71183;SDS011;58887;51.980;4.464;2023-11-21T00:12:30;7.32;;;7.31;;
71183;SDS011;58887;51.980;4.464;2023-11-21T00:14:56;7.66;;;7.65;;
71183;SDS011;58887;51.980;4.464;2023-11-21T00:17:23;7.42;;;7.41;;
71183;SDS011;58887;51.980;4.464;2023-11-21T00:19:48;7.37;;;7.34;;
71183;SDS011;58887;51.980;4.464;2023-11-21T00:22:14;7.56;;;7.56;;
71183;SDS011;58887;51.980;4.464;2023-11-21T00:24:39;7.65;;;7.64;;
71183;SDS011;58887;51.980;4.464;2023-11-21T00:27:05;7.72;;;7.72;;
71183;SDS011;58887;51.980;4.464;2023-11-21T00:29:31;7.35;;;7.31;;
71183;SDS011;58887;51.980;4.464;2023-11-21T00:31:56;7.21;;;7.20;;
71183;SDS011;58887;51.980;4.464;2023-11-21T00:34:22;6.66;;;6.66;;
71183;SDS011;58887;51.980;4.464;2023-11-21T00:36:47;7.11;;;7.11;;
71183;SDS011;58887;51.980;4.464;2023-11-21T00:39:12;7.08;;;7.07;;
71183;SDS011;58887;51.980;4.464;2023-11-21T00:41:38;6.71;;;6.69;;
71183;SDS011;58887;51.980;4.464;2023-11-21T00:44:04;6.79;;;6.79;;
71183;SDS011;58887;51.980;4.464;2023-11-21T00:46:31;6.86;;;6.85;;
71183;SDS011;58887;51.980;4.464;2023-11-21T00:48:57;6.63;;;6.62;;
71183;SDS011;58887;51.980;4.464;2023-11-21T00:51:22;6.88;;;6.84;;
71183;SDS011;58887;51.980;4.464;2023-11-21T00:53:48;6.57;;;6.50;;
71183;SDS011;58887;51.980;4.464;2023-11-21T00:56:14;6.54;;;6.54;;
71183;SDS011;58887;51.980;4.464;2023-11-21T00:58:40;6.22;;;6.22;;
71183;SDS011;58887;51.980;4.464;2023-11-21T01:01:09;6.28;;;6.28;;
71183;SDS011;58887;51.980;4.464;2023-11-21T01:03:34;6.29;;;6.29;;
71183;SDS011;58887;51.980;4.464;2023-11-21T01:06:00;6.22;;;6.22;;
71183;SDS011;58887;51.980;4.464;2023-11-21T01:08:26;6.24;;;6.24;;
71183;SDS011;58887;51.980;4.464;2023-11-21T01:10:51;6.13;;;6.12;;
71183;SDS011;58887;51.980;4.464;2023-11-21T01:13:16;6.15;;;6.15;;
71183;SDS011;58887;51.980;4.464;2023-11-21T01:15:42;6.04;;;6.04;;
71183;SDS011;58887;51.980;4.464;2023-11-21T01:18:07;5.69;;;5.69;;
71183;SDS011;58887;51.980;4.464;2023-11-21T01:20:33;5.89;;;5.89;;
71183;SDS011;58887;51.980;4.464;2023-11-21T01:22:59;5.32;;;5.32;;
71183;SDS011;58887;51.980;4.464;2023-11-21T01:25:25;5.58;;;5.56;;
71183;SDS011;58887;51.980;4.464;2023-11-21T01:27:51;5.77;;;5.72;;
71183;SDS011;58887;51.980;4.464;2023-11-21T01:30:17;5.14;;;5.13;;
71183;SDS011;58887;51.980;4.464;2023-11-21T01:32:43;5.47;;;5.46;;
71183;SDS011;58887;51.980;4.464;2023-11-21T01:35:09;5.40;;;5.38;;
71183;SDS011;58887;51.980;4.464;2023-11-21T01:37:35;5.03;;;5.02;;
71183;SDS011;58887;51.980;4.464;2023-11-21T01:40:01;5.21;;;5.21;;
71183;SDS011;58887;51.980;4.464;2023-11-21T01:42:27;5.08;;;5.08;;
71183;SDS011;58887;51.980;4.464;2023-11-21T01:44:54;5.36;;;5.36;;
71183;SDS011;58887;51.980;4.464;2023-11-21T01:47:20;5.25;;;5.25;;
71183;SDS011;58887;51.980;4.464;2023-11-21T01:49:46;5.00;;;5.00;;
71183;SDS011;58887;51.980;4.464;2023-11-21T01:52:12;4.95;;;4.95;;
71183;SDS011;58887;51.980;4.464;2023-11-21T01:54:38;5.31;;;5.27;;
71183;SDS011;58887;51.980;4.464;2023-11-21T01:57:04;5.02;;;5.02;;
71183;SDS011;58887;51.980;4.464;2023-11-21T01:59:37;4.69;;;4.66;;
71183;SDS011;58887;51.980;4.464;2023-11-21T02:02:05;4.38;;;4.35;;
71183;SDS011;58887;51.980;4.464;2023-11-21T02:04:32;5.07;;;5.04;;
71183;SDS011;58887;51.980;4.464;2023-11-21T02:06:59;4.65;;;4.62;;
71183;SDS011;58887;51.980;4.464;2023-11-21T02:09:28;4.83;;;4.82;;
71183;SDS011;58887;51.980;4.464;2023-11-21T02:11:58;4.84;;;4.82;;
71183;SDS011;58887;51.980;4.464;2023-11-21T02:14:25;4.78;;;4.76;;
71183;SDS011;58887;51.980;4.464;2023-11-21T02:16:52;4.95;;;4.94;;
71183;SDS011;58887;51.980;4.464;2023-11-21T02:19:19;4.82;;;4.82;;
71183;SDS011;58887;51.980;4.464;2023-11-21T02:21:47;4.55;;;4.55;;
71183;SDS011;58887;51.980;4.464;2023-11-21T02:24:15;4.47;;;4.46;;
71183;SDS011;58887;51.980;4.464;2023-11-21T02:26:43;4.78;;;4.78;;
71183;SDS011;58887;51.980;4.464;2023-11-21T02:29:08;5.15;;;5.13;;
71183;SDS011;58887;51.980;4.464;2023-11-21T02:31:37;5.06;;;5.05;;
71183;SDS011;58887;51.980;4.464;2023-11-21T02:34:10;4.63;;;4.63;;
71183;SDS011;58887;51.980;4.464;2023-11-21T02:36:38;4.46;;;4.46;;
71183;SDS011;58887;51.980;4.464;2023-11-21T02:39:04;4.55;;;4.55;;
71183;SDS011;58887;51.980;4.464;2023-11-21T02:41:29;4.60;;;4.59;;
71183;SDS011;58887;51.980;4.464;2023-11-21T02:43:55;4.31;;;4.31;;
71183;SDS011;58887;51.980;4.464;2023-11-21T02:46:20;4.19;;;4.19;;
71183;SDS011;58887;51.980;4.464;2023-11-21T02:48:47;4.35;;;4.34;;
71183;SDS011;58887;51.980;4.464;2023-11-21T02:51:12;4.44;;;4.44;;
71183;SDS011;58887;51.980;4.464;2023-11-21T02:53:38;4.27;;;4.27;;
71183;SDS011;58887;51.980;4.464;2023-11-21T02:56:04;3.87;;;3.87;;
71183;SDS011;58887;51.980;4.464;2023-11-21T02:58:30;4.54;;;4.53;;
71183;SDS011;58887;51.980;4.464;2023-11-21T03:00:55;4.47;;;4.47;;
71183;SDS011;58887;51.980;4.464;2023-11-21T03:03:21;4.23;;;4.23;;
71183;SDS011;58887;51.980;4.464;2023-11-21T03:05:49;4.15;;;4.15;;
71183;SDS011;58887;51.980;4.464;2023-11-21T03:08:14;3.76;;;3.75;;
71183;SDS011;58887;51.980;4.464;2023-11-21T03:10:39;3.85;;;3.82;;
71183;SDS011;58887;51.980;4.464;2023-11-21T03:13:05;3.99;;;3.97;;
71183;SDS011;58887;51.980;4.464;2023-11-21T03:15:30;3.97;;;3.96;;
71183;SDS011;58887;51.980;4.464;2023-11-21T03:17:58;3.90;;;3.90;;
71183;SDS011;58887;51.980;4.464;2023-11-21T03:20:24;4.14;;;4.10;;
71183;SDS011;58887;51.980;4.464;2023-11-21T03:22:50;4.00;;;3.98;;
71183;SDS011;58887;51.980;4.464;2023-11-21T03:25:16;3.73;;;3.73;;
71183;SDS011;58887;51.980;4.464;2023-11-21T03:27:42;4.00;;;4.00;;
71183;SDS011;58887;51.980;4.464;2023-11-21T03:30:09;4.10;;;4.09;;
71183;SDS011;58887;51.980;4.464;2023-11-21T03:32:36;4.10;;;4.08;;
71183;SDS011;58887;51.980;4.464;2023-11-21T03:35:02;3.81;;;3.80;;
71183;SDS011;58887;51.980;4.464;2023-11-21T03:37:28;3.86;;;3.85;;
71183;SDS011;58887;51.980;4.464;2023-11-21T03:39:54;3.84;;;3.82;;
71183;SDS011;58887;51.980;4.464;2023-11-21T03:42:21;3.71;;;3.71;;
71183;SDS011;58887;51.980;4.464;2023-11-21T03:44:47;3.72;;;3.72;;
71183;SDS011;58887;51.980;4.464;2023-11-21T03:47:12;3.82;;;3.82;;
71183;SDS011;58887;51.980;4.464;2023-11-21T03:49:38;4.00;;;3.98;;
71183;SDS011;58887;51.980;4.464;2023-11-21T03:52:03;3.76;;;3.76;;
71183;SDS011;58887;51.980;4.464;2023-11-21T03:54:29;3.80;;;3.80;;
71183;SDS011;58887;51.980;4.464;2023-11-21T03:56:55;3.89;;;3.89;;
71183;SDS011;58887;51.980;4.464;2023-11-21T03:59:21;3.71;;;3.71;;
71183;SDS011;58887;51.980;4.464;2023-11-21T04:01:49;3.89;;;3.88;;
71183;SDS011;58887;51.980;4.464;2023-11-21T04:04:15;3.91;;;3.91;;
71183;SDS011;58887;51.980;4.464;2023-11-21T04:06:41;3.99;;;3.99;;
71183;SDS011;58887;51.980;4.464;2023-11-21T04:09:06;3.92;;;3.92;;
71183;SDS011;58887;51.980;4.464;2023-11-21T04:11:32;3.94;;;3.94;;
71183;SDS011;58887;51.980;4.464;2023-11-21T04:13:57;4.03;;;4.03;;
71183;SDS011;58887;51.980;4.464;2023-11-21T04:16:23;4.04;;;4.04;;
71183;SDS011;58887;51.980;4.464;2023-11-21T04:18:49;3.96;;;3.96;;
71183;SDS011;58887;51.980;4.464;2023-11-21T04:21:14;4.09;;;4.09;;
71183;SDS011;58887;51.980;4.464;2023-11-21T04:23:40;4.08;;;4.08;;
71183;SDS011;58887;51.980;4.464;2023-11-21T04:26:05;4.03;;;4.03;;
71183;SDS011;58887;51.980;4.464;2023-11-21T04:28:32;3.97;;;3.97;;
71183;SDS011;58887;51.980;4.464;2023-11-21T04:30:58;4.00;;;4.00;;
71183;SDS011;58887;51.980;4.464;2023-11-21T04:33:24;4.02;;;4.02;;
71183;SDS011;58887;51.980;4.464;2023-11-21T04:35:50;3.93;;;3.93;;
71183;SDS011;58887;51.980;4.464;2023-11-21T04:38:16;3.86;;;3.86;;
71183;SDS011;58887;51.980;4.464;2023-11-21T04:40:41;4.07;;;4.07;;
71183;SDS011;58887;51.980;4.464;2023-11-21T04:43:07;4.07;;;4.07;;
71183;SDS011;58887;51.980;4.464;2023-11-21T04:45:32;4.21;;;4.21;;
71183;SDS011;58887;51.980;4.464;2023-11-21T04:47:57;3.86;;;3.86;;
71183;SDS011;58887;51.980;4.464;2023-11-21T04:50:23;4.19;;;4.19;;
71183;SDS011;58887;51.980;4.464;2023-11-21T04:52:50;4.66;;;4.66;;
71183;SDS011;58887;51.980;4.464;2023-11-21T04:55:16;4.51;;;4.51;;
71183;SDS011;58887;51.980;4.464;2023-11-21T04:57:43;4.84;;;4.84;;
71183;SDS011;58887;51.980;4.464;2023-11-21T05:00:09;4.63;;;4.63;;
71183;SDS011;58887;51.980;4.464;2023-11-21T05:02:35;4.50;;;4.50;;
71183;SDS011;58887;51.980;4.464;2023-11-21T05:05:01;4.39;;;4.38;;
71183;SDS011;58887;51.980;4.464;2023-11-21T05:07:31;3.89;;;3.88;;
71183;SDS011;58887;51.980;4.464;2023-11-21T05:09:57;4.04;;;4.04;;
71183;SDS011;58887;51.980;4.464;2023-11-21T05:12:23;4.27;;;4.27;;
71183;SDS011;58887;51.980;4.464;2023-11-21T05:14:49;4.31;;;4.31;;
71183;SDS011;58887;51.980;4.464;2023-11-21T05:17:15;4.24;;;4.24;;
71183;SDS011;58887;51.980;4.464;2023-11-21T05:19:41;3.89;;;3.87;;
71183;SDS011;58887;51.980;4.464;2023-11-21T05:22:07;4.36;;;4.33;;
71183;SDS011;58887;51.980;4.464;2023-11-21T05:24:33;4.35;;;4.35;;
71183;SDS011;58887;51.980;4.464;2023-11-21T05:27:00;4.08;;;4.06;;
71183;SDS011;58887;51.980;4.464;2023-11-21T05:29:25;3.94;;;3.93;;
71183;SDS011;58887;51.980;4.464;2023-11-21T05:31:51;3.99;;;3.99;;
71183;SDS011;58887;51.980;4.464;2023-11-21T05:34:18;4.05;;;4.05;;
71183;SDS011;58887;51.980;4.464;2023-11-21T05:36:43;4.41;;;4.41;;
71183;SDS011;58887;51.980;4.464;2023-11-21T05:39:11;3.87;;;3.87;;
71183;SDS011;58887;51.980;4.464;2023-11-21T05:41:36;3.81;;;3.81;;
71183;SDS011;58887;51.980;4.464;2023-11-21T05:44:02;3.89;;;3.89;;
71183;SDS011;58887;51.980;4.464;2023-11-21T05:46:27;3.90;;;3.90;;
71183;SDS011;58887;51.980;4.464;2023-11-21T05:48:53;3.99;;;3.99;;
71183;SDS011;58887;51.980;4.464;2023-11-21T05:51:18;3.81;;;3.81;;
71183;SDS011;58887;51.980;4.464;2023-11-21T05:53:44;3.95;;;3.94;;
71183;SDS011;58887;51.980;4.464;2023-11-21T05:56:09;3.66;;;3.62;;
71183;SDS011;58887;51.980;4.464;2023-11-21T05:58:34;3.28;;;3.27;;
71183;SDS011;58887;51.980;4.464;2023-11-21T06:01:00;2.99;;;2.98;;
71183;SDS011;58887;51.980;4.464;2023-11-21T06:03:25;3.33;;;3.30;;
71183;SDS011;58887;51.980;4.464;2023-11-21T06:05:51;3.24;;;3.19;;
71183;SDS011;58887;51.980;4.464;2023-11-21T06:08:16;2.83;;;2.79;;
71183;SDS011;58887;51.980;4.464;2023-11-21T06:10:42;2.55;;;2.52;;
71183;SDS011;58887;51.980;4.464;2023-11-21T06:13:09;2.30;;;2.30;;
71183;SDS011;58887;51.980;4.464;2023-11-21T06:15:35;2.32;;;2.32;;
71183;SDS011;58887;51.980;4.464;2023-11-21T06:18:01;2.23;;;2.23;;
71183;SDS011;58887;51.980;4.464;2023-11-21T06:20:26;2.41;;;2.39;;
71183;SDS011;58887;51.980;4.464;2023-11-21T06:22:52;2.12;;;2.12;;
71183;SDS011;58887;51.980;4.464;2023-11-21T06:25:19;2.06;;;2.06;;
71183;SDS011;58887;51.980;4.464;2023-11-21T06:27:45;2.12;;;2.12;;
71183;SDS011;58887;51.980;4.464;2023-11-21T06:30:13;2.01;;;2.01;;
71183;SDS011;58887;51.980;4.464;2023-11-21T06:32:40;1.89;;;1.89;;
71183;SDS011;58887;51.980;4.464;2023-11-21T06:35:07;2.13;;;2.13;;
71183;SDS011;58887;51.980;4.464;2023-11-21T06:37:35;2.21;;;2.21;;
71183;SDS011;58887;51.980;4.464;2023-11-21T06:40:01;2.09;;;2.09;;
71183;SDS011;58887;51.980;4.464;2023-11-21T06:42:29;2.07;;;2.07;;
71183;SDS011;58887;51.980;4.464;2023-11-21T06:44:55;1.90;;;1.90;;
71183;SDS011;58887;51.980;4.464;2023-11-21T06:47:22;2.01;;;2.01;;
71183;SDS011;58887;51.980;4.464;2023-11-21T06:49:50;1.91;;;1.89;;
71183;SDS011;58887;51.980;4.464;2023-11-21T06:52:16;1.87;;;1.85;;
71183;SDS011;58887;51.980;4.464;2023-11-21T06:54:43;2.05;;;2.04;;
71183;SDS011;58887;51.980;4.464;2023-11-21T06:57:10;2.09;;;2.09;;
71183;SDS011;58887;51.980;4.464;2023-11-21T06:59:36;1.76;;;1.76;;
71183;SDS011;58887;51.980;4.464;2023-11-21T07:02:02;1.88;;;1.87;;
71183;SDS011;58887;51.980;4.464;2023-11-21T07:04:28;1.62;;;1.62;;
71183;SDS011;58887;51.980;4.464;2023-11-21T07:06:53;1.61;;;1.61;;
71183;SDS011;58887;51.980;4.464;2023-11-21T07:09:19;1.81;;;1.81;;
71183;SDS011;58887;51.980;4.464;2023-11-21T07:11:48;1.59;;;1.59;;
71183;SDS011;58887;51.980;4.464;2023-11-21T07:14:14;1.67;;;1.67;;
71183;SDS011;58887;51.980;4.464;2023-11-21T07:16:43;1.66;;;1.66;;
71183;SDS011;58887;51.980;4.464;2023-11-21T07:19:08;1.65;;;1.65;;
71183;SDS011;58887;51.980;4.464;2023-11-21T07:21:36;1.72;;;1.72;;
71183;SDS011;58887;51.980;4.464;2023-11-21T07:24:02;1.80;;;1.80;;
71183;SDS011;58887;51.980;4.464;2023-11-21T07:26:31;1.69;;;1.69;;
71183;SDS011;58887;51.980;4.464;2023-11-21T07:28:58;1.78;;;1.78;;
71183;SDS011;58887;51.980;4.464;2023-11-21T07:31:25;1.72;;;1.72;;
71183;SDS011;58887;51.980;4.464;2023-11-21T07:33:54;1.63;;;1.63;;
71183;SDS011;58887;51.980;4.464;2023-11-21T07:36:22;1.87;;;1.86;;
71183;SDS011;58887;51.980;4.464;2023-11-21T07:38:48;1.93;;;1.90;;
71183;SDS011;58887;51.980;4.464;2023-11-21T07:41:15;1.84;;;1.81;;
71183;SDS011;58887;51.980;4.464;2023-11-21T07:43:41;1.76;;;1.75;;
71183;SDS011;58887;51.980;4.464;2023-11-21T07:46:07;1.89;;;1.87;;
71183;SDS011;58887;51.980;4.464;2023-11-21T07:48:33;1.66;;;1.63;;
71183;SDS011;58887;51.980;4.464;2023-11-21T07:51:00;1.70;;;1.65;;
71183;SDS011;58887;51.980;4.464;2023-11-21T07:53:28;1.70;;;1.65;;
71183;SDS011;58887;51.980;4.464;2023-11-21T07:55:58;1.81;;;1.78;;
71183;SDS011;58887;51.980;4.464;2023-11-21T07:58:28;1.65;;;1.61;;
71183;SDS011;58887;51.980;4.464;2023-11-21T08:00:53;1.91;;;1.81;;
71183;SDS011;58887;51.980;4.464;2023-11-21T08:03:19;1.90;;;1.80;;
71183;SDS011;58887;51.980;4.464;2023-11-21T08:05:44;1.85;;;1.75;;
71183;SDS011;58887;51.980;4.464;2023-11-21T08:08:10;1.83;;;1.75;;
71183;SDS011;58887;51.980;4.464;2023-11-21T08:10:36;2.09;;;2.00;;
71183;SDS011;58887;51.980;4.464;2023-11-21T08:13:02;2.31;;;2.20;;
71183;SDS011;58887;51.980;4.464;2023-11-21T08:15:29;2.08;;;1.99;;
71183;SDS011;58887;51.980;4.464;2023-11-21T08:17:57;2.29;;;2.19;;
71183;SDS011;58887;51.980;4.464;2023-11-21T08:20:22;2.42;;;2.33;;
71183;SDS011;58887;51.980;4.464;2023-11-21T08:22:48;2.53;;;2.44;;
71183;SDS011;58887;51.980;4.464;2023-11-21T08:25:13;2.48;;;2.42;;
71183;SDS011;58887;51.980;4.464;2023-11-21T08:27:39;2.32;;;2.28;;
71183;SDS011;58887;51.980;4.464;2023-11-21T08:30:04;2.37;;;2.34;;
71183;SDS011;58887;51.980;4.464;2023-11-21T08:32:31;2.59;;;2.58;;
71183;SDS011;58887;51.980;4.464;2023-11-21T08:34:58;2.06;;;2.06;;
71183;SDS011;58887;51.980;4.464;2023-11-21T08:37:25;2.35;;;2.35;;
71183;SDS011;58887;51.980;4.464;2023-11-21T08:39:52;2.42;;;2.41;;
71183;SDS011;58887;51.980;4.464;2023-11-21T08:42:18;2.42;;;2.42;;
71183;SDS011;58887;51.980;4.464;2023-11-21T08:44:44;2.62;;;2.61;;
71183;SDS011;58887;51.980;4.464;2023-11-21T08:47:09;2.45;;;2.41;;
71183;SDS011;58887;51.980;4.464;2023-11-21T08:49:34;2.69;;;2.65;;
71183;SDS011;58887;51.980;4.464;2023-11-21T08:52:00;2.97;;;2.93;;
71183;SDS011;58887;51.980;4.464;2023-11-21T08:54:25;2.91;;;2.86;;
71183;SDS011;58887;51.980;4.464;2023-11-21T08:56:54;2.80;;;2.75;;
71183;SDS011;58887;51.980;4.464;2023-11-21T08:59:26;2.81;;;2.75;;
71183;SDS011;58887;51.980;4.464;2023-11-21T09:01:51;2.78;;;2.72;;
71183;SDS011;58887;51.980;4.464;2023-11-21T09:04:17;2.50;;;2.44;;
71183;SDS011;58887;51.980;4.464;2023-11-21T09:06:42;2.26;;;2.25;;
71183;SDS011;58887;51.980;4.464;2023-11-21T09:09:08;2.41;;;2.41;;
71183;SDS011;58887;51.980;4.464;2023-11-21T09:11:36;2.37;;;2.37;;
71183;SDS011;58887;51.980;4.464;2023-11-21T09:14:02;2.35;;;2.35;;
71183;SDS011;58887;51.980;4.464;2023-11-21T09:16:31;2.47;;;2.47;;
71183;SDS011;58887;51.980;4.464;2023-11-21T09:18:57;2.23;;;2.22;;
71183;SDS011;58887;51.980;4.464;2023-11-21T09:21:22;2.39;;;2.38;;
71183;SDS011;58887;51.980;4.464;2023-11-21T09:23:48;2.48;;;2.48;;
71183;SDS011;58887;51.980;4.464;2023-11-21T09:26:14;2.51;;;2.51;;
71183;SDS011;58887;51.980;4.464;2023-11-21T09:28:41;2.65;;;2.65;;
71183;SDS011;58887;51.980;4.464;2023-11-21T09:31:11;2.74;;;2.74;;
71183;SDS011;58887;51.980;4.464;2023-11-21T09:33:37;2.51;;;2.51;;
71183;SDS011;58887;51.980;4.464;2023-11-21T09:36:03;2.78;;;2.78;;
71183;SDS011;58887;51.980;4.464;2023-11-21T09:38:30;2.79;;;2.78;;
71183;SDS011;58887;51.980;4.464;2023-11-21T09:40:56;2.95;;;2.94;;
71183;SDS011;58887;51.980;4.464;2023-11-21T09:43:23;2.88;;;2.87;;
71183;SDS011;58887;51.980;4.464;2023-11-21T09:45:56;3.42;;;3.41;;
71183;SDS011;58887;51.980;4.464;2023-11-21T09:48:26;3.25;;;3.23;;
71183;SDS011;58887;51.980;4.464;2023-11-21T09:50:51;2.94;;;2.93;;
71183;SDS011;58887;51.980;4.464;2023-11-21T09:53:19;3.39;;;3.39;;
71183;SDS011;58887;51.980;4.464;2023-11-21T09:55:47;3.29;;;3.29;;
71183;SDS011;58887;51.980;4.464;2023-11-21T09:58:16;3.63;;;3.63;;
71183;SDS011;58887;51.980;4.464;2023-11-21T10:00:45;3.63;;;3.63;;
71183;SDS011;58887;51.980;4.464;2023-11-21T10:03:13;3.78;;;3.78;;
71183;SDS011;58887;51.980;4.464;2023-11-21T10:05:39;3.96;;;3.96;;
71183;SDS011;58887;51.980;4.464;2023-11-21T10:08:09;4.13;;;4.11;;
71183;SDS011;58887;51.980;4.464;2023-11-21T10:10:38;3.97;;;3.92;;
71183;SDS011;58887;51.980;4.464;2023-11-21T10:13:11;3.78;;;3.78;;
71183;SDS011;58887;51.980;4.464;2023-11-21T10:15:37;4.34;;;4.34;;
71183;SDS011;58887;51.980;4.464;2023-11-21T10:18:04;4.55;;;4.55;;
71183;SDS011;58887;51.980;4.464;2023-11-21T10:20:32;4.40;;;4.40;;
71183;SDS011;58887;51.980;4.464;2023-11-21T10:22:59;4.98;;;4.98;;
71183;SDS011;58887;51.980;4.464;2023-11-21T10:25:27;4.38;;;4.38;;
71183;SDS011;58887;51.980;4.464;2023-11-21T10:27:59;4.62;;;4.62;;
71183;SDS011;58887;51.980;4.464;2023-11-21T10:30:36;4.41;;;4.41;;
71183;SDS011;58887;51.980;4.464;2023-11-21T10:33:06;4.18;;;4.14;;
71183;SDS011;58887;51.980;4.464;2023-11-21T10:38:05;4.34;;;4.34;;
71183;SDS011;58887;51.980;4.464;2023-11-21T10:40:30;4.53;;;4.53;;
71183;SDS011;58887;51.980;4.464;2023-11-21T10:43:05;4.66;;;4.66;;
71183;SDS011;58887;51.980;4.464;2023-11-21T10:45:31;5.11;;;5.11;;
71183;SDS011;58887;51.980;4.464;2023-11-21T10:47:57;4.88;;;4.87;;
71183;SDS011;58887;51.980;4.464;2023-11-21T10:50:23;4.94;;;4.93;;
71183;SDS011;58887;51.980;4.464;2023-11-21T10:52:48;4.72;;;4.69;;
71183;SDS011;58887;51.980;4.464;2023-11-21T10:55:21;4.37;;;4.36;;
71183;SDS011;58887;51.980;4.464;2023-11-21T10:57:49;4.42;;;4.39;;
71183;SDS011;58887;51.980;4.464;2023-11-21T11:00:19;4.72;;;4.66;;
71183;SDS011;58887;51.980;4.464;2023-11-21T11:02:50;4.48;;;4.48;;
71183;SDS011;58887;51.980;4.464;2023-11-21T11:05:20;4.69;;;4.69;;
71183;SDS011;58887;51.980;4.464;2023-11-21T11:07:50;4.33;;;4.31;;
71183;SDS011;58887;51.980;4.464;2023-11-21T11:10:25;4.09;;;4.03;;
71183;SDS011;58887;51.980;4.464;2023-11-21T11:12:53;4.08;;;4.07;;
71183;SDS011;58887;51.980;4.464;2023-11-21T11:15:19;3.91;;;3.89;;
71183;SDS011;58887;51.980;4.464;2023-11-21T11:17:45;4.03;;;3.98;;
71183;SDS011;58887;51.980;4.464;2023-11-21T11:20:12;4.40;;;4.36;;
71183;SDS011;58887;51.980;4.464;2023-11-21T11:22:44;4.13;;;4.08;;
71183;SDS011;58887;51.980;4.464;2023-11-21T11:28:20;4.48;;;4.44;;
71183;SDS011;58887;51.980;4.464;2023-11-21T11:30:52;4.73;;;4.67;;
71183;SDS011;58887;51.980;4.464;2023-11-21T11:33:48;4.88;;;4.80;;
71183;SDS011;58887;51.980;4.464;2023-11-21T11:38:49;5.18;;;5.14;;
71183;SDS011;58887;51.980;4.464;2023-11-21T11:41:15;5.18;;;5.15;;
71183;SDS011;58887;51.980;4.464;2023-11-21T11:43:59;5.76;;;5.68;;
71183;SDS011;58887;51.980;4.464;2023-11-21T11:46:41;4.95;;;4.90;;
71183;SDS011;58887;51.980;4.464;2023-11-21T11:49:10;5.63;;;5.55;;
71183;SDS011;58887;51.980;4.464;2023-11-21T11:51:36;5.62;;;5.56;;
71183;SDS011;58887;51.980;4.464;2023-11-21T11:54:02;6.06;;;5.93;;
71183;SDS011;58887;51.980;4.464;2023-11-21T11:56:31;5.89;;;5.81;;
71183;SDS011;58887;51.980;4.464;2023-11-21T11:59:00;5.80;;;5.79;;
71183;SDS011;58887;51.980;4.464;2023-11-21T12:01:34;5.71;;;5.71;;
71183;SDS011;58887;51.980;4.464;2023-11-21T12:06:59;6.00;;;5.98;;
71183;SDS011;58887;51.980;4.464;2023-11-21T12:09:27;6.23;;;6.21;;
71183;SDS011;58887;51.980;4.464;2023-11-21T12:11:54;6.94;;;6.94;;
71183;SDS011;58887;51.980;4.464;2023-11-21T12:14:21;6.81;;;6.81;;
71183;SDS011;58887;51.980;4.464;2023-11-21T12:16:48;6.80;;;6.79;;
71183;SDS011;58887;51.980;4.464;2023-11-21T12:19:14;6.71;;;6.69;;
71183;SDS011;58887;51.980;4.464;2023-11-21T12:21:40;6.85;;;6.85;;
71183;SDS011;58887;51.980;4.464;2023-11-21T12:24:13;6.38;;;6.31;;
71183;SDS011;58887;51.980;4.464;2023-11-21T12:26:40;6.07;;;6.01;;
71183;SDS011;58887;51.980;4.464;2023-11-21T12:29:05;6.02;;;6.01;;
71183;SDS011;58887;51.980;4.464;2023-11-21T12:31:33;5.95;;;5.95;;
71183;SDS011;58887;51.980;4.464;2023-11-21T12:33:59;5.79;;;5.75;;
71183;SDS011;58887;51.980;4.464;2023-11-21T12:36:25;5.51;;;5.51;;
71183;SDS011;58887;51.980;4.464;2023-11-21T12:38:51;5.45;;;5.45;;
71183;SDS011;58887;51.980;4.464;2023-11-21T12:41:16;5.41;;;5.41;;
71183;SDS011;58887;51.980;4.464;2023-11-21T12:43:42;5.08;;;5.07;;
71183;SDS011;58887;51.980;4.464;2023-11-21T12:46:09;4.61;;;4.60;;
71183;SDS011;58887;51.980;4.464;2023-11-21T12:48:42;5.01;;;4.98;;
71183;SDS011;58887;51.980;4.464;2023-11-21T12:51:09;4.49;;;4.49;;
71183;SDS011;58887;51.980;4.464;2023-11-21T12:53:43;4.88;;;4.88;;
71183;SDS011;58887;51.980;4.464;2023-11-21T12:56:12;4.85;;;4.84;;
71183;SDS011;58887;51.980;4.464;2023-11-21T12:58:39;4.61;;;4.61;;
71183;SDS011;58887;51.980;4.464;2023-11-21T13:01:09;4.82;;;4.82;;
71183;SDS011;58887;51.980;4.464;2023-11-21T13:03:40;4.92;;;4.92;;
71183;SDS011;58887;51.980;4.464;2023-11-21T13:06:07;4.56;;;4.56;;
71183;SDS011;58887;51.980;4.464;2023-11-21T13:08:33;4.95;;;4.95;;
71183;SDS011;58887;51.980;4.464;2023-11-21T13:10:59;4.62;;;4.62;;
71183;SDS011;58887;51.980;4.464;2023-11-21T13:13:25;4.77;;;4.77;;
71183;SDS011;58887;51.980;4.464;2023-11-21T13:15:57;4.63;;;4.63;;
71183;SDS011;58887;51.980;4.464;2023-11-21T13:18:30;4.61;;;4.61;;
71183;SDS011;58887;51.980;4.464;2023-11-21T13:20:57;4.89;;;4.88;;
71183;SDS011;58887;51.980;4.464;2023-11-21T13:23:24;4.90;;;4.81;;
71183;SDS011;58887;51.980;4.464;2023-11-21T13:25:51;4.67;;;4.67;;
71183;SDS011;58887;51.980;4.464;2023-11-21T13:28:20;4.65;;;4.64;;
71183;SDS011;58887;51.980;4.464;2023-11-21T13:30:49;4.70;;;4.70;;
71183;SDS011;58887;51.980;4.464;2023-11-21T13:33:18;4.17;;;4.17;;
71183;SDS011;58887;51.980;4.464;2023-11-21T13:35:46;4.32;;;4.32;;
71183;SDS011;58887;51.980;4.464;2023-11-21T13:38:15;4.01;;;4.01;;
71183;SDS011;58887;51.980;4.464;2023-11-21T13:40:45;4.16;;;4.16;;
71183;SDS011;58887;51.980;4.464;2023-11-21T13:43:15;4.34;;;4.34;;
71183;SDS011;58887;51.980;4.464;2023-11-21T13:45:44;4.13;;;4.13;;
71183;SDS011;58887;51.980;4.464;2023-11-21T13:48:11;4.51;;;4.43;;
71183;SDS011;58887;51.980;4.464;2023-11-21T13:50:45;4.75;;;4.69;;
71183;SDS011;58887;51.980;4.464;2023-11-21T13:53:21;4.40;;;4.30;;
71183;SDS011;58887;51.980;4.464;2023-11-21T13:55:54;4.79;;;4.69;;
71183;SDS011;58887;51.980;4.464;2023-11-21T13:58:21;4.85;;;4.76;;
71183;SDS011;58887;51.980;4.464;2023-11-21T14:01:05;5.27;;;5.22;;
71183;SDS011;58887;51.980;4.464;2023-11-21T14:03:38;5.06;;;5.02;;
71183;SDS011;58887;51.980;4.464;2023-11-21T14:06:15;4.85;;;4.78;;
71183;SDS011;58887;51.980;4.464;2023-11-21T14:08:47;5.00;;;4.99;;
71183;SDS011;58887;51.980;4.464;2023-11-21T14:11:13;5.24;;;5.24;;
71183;SDS011;58887;51.980;4.464;2023-11-21T14:13:42;5.39;;;5.38;;
71183;SDS011;58887;51.980;4.464;2023-11-21T14:16:11;4.89;;;4.89;;
71183;SDS011;58887;51.980;4.464;2023-11-21T14:18:39;4.23;;;4.22;;
71183;SDS011;58887;51.980;4.464;2023-11-21T14:21:21;3.95;;;3.95;;
71183;SDS011;58887;51.980;4.464;2023-11-21T14:23:47;3.58;;;3.58;;
71183;SDS011;58887;51.980;4.464;2023-11-21T14:26:13;3.56;;;3.56;;
71183;SDS011;58887;51.980;4.464;2023-11-21T14:28:40;4.02;;;3.97;;
71183;SDS011;58887;51.980;4.464;2023-11-21T14:31:07;4.21;;;4.14;;
71183;SDS011;58887;51.980;4.464;2023-11-21T14:33:36;4.57;;;4.55;;
71183;SDS011;58887;51.980;4.464;2023-11-21T14:36:02;4.83;;;4.83;;
71183;SDS011;58887;51.980;4.464;2023-11-21T14:38:27;5.27;;;5.21;;
71183;SDS011;58887;51.980;4.464;2023-11-21T14:40:53;5.98;;;5.89;;
71183;SDS011;58887;51.980;4.464;2023-11-21T14:43:18;6.02;;;5.94;;
71183;SDS011;58887;51.980;4.464;2023-11-21T14:45:45;6.46;;;6.33;;
71183;SDS011;58887;51.980;4.464;2023-11-21T14:48:10;7.27;;;7.15;;
71183;SDS011;58887;51.980;4.464;2023-11-21T14:50:51;7.92;;;7.85;;
71183;SDS011;58887;51.980;4.464;2023-11-21T14:53:36;7.96;;;7.83;;
71183;SDS011;58887;51.980;4.464;2023-11-21T14:56:19;7.54;;;7.45;;
71183;SDS011;58887;51.980;4.464;2023-11-21T14:58:58;7.77;;;7.72;;